Time;durP1;ratioP1;P1;durP2;ratioP2;P2;SDS_P1;SDS_P2;PMS_P1;PMS_P2;Temp;Humidity;BMP_temperature;BMP_pressure;BME280_temperature;BME280_humidity;BME280_pressure;Samples;Min_cycle;Max_cycle;Signal;HPM_P1;HPM_P2
2022/04/27 00:00:37;;;;;;;17.98;9.15;;;7.50;99.90;;;;;;4990256;28;20042;-63
2022/04/27 00:03:04;;;;;;;18.77;9.68;;;7.50;99.90;;;;;;5006567;28;20780;-63
2022/04/27 00:05:31;;;;;;;19.70;9.68;;;7.50;99.90;;;;;;5005959;28;20100;-64
2022/04/27 00:07:57;;;;;;;19.70;10.43;;;7.50;99.90;;;;;;4996018;28;20505;-64
2022/04/27 00:10:23;;;;;;;21.65;10.35;;;7.50;99.90;;;;;;4992127;28;20014;-64
2022/04/27 00:12:49;;;;;;;18.77;8.95;;;7.50;99.90;;;;;;5003660;28;20052;-64
2022/04/27 00:15:15;;;;;;;20.75;8.98;;;7.50;99.90;;;;;;5007858;28;20076;-65
2022/04/27 00:17:41;;;;;;;16.75;8.38;;;7.50;99.90;;;;;;5008695;28;20117;-64
2022/04/27 00:20:09;;;;;;;16.65;7.78;;;7.50;99.90;;;;;;5014868;28;20121;-64
2022/04/27 00:22:36;;;;;;;20.75;8.90;;;7.40;99.90;;;;;;5009100;28;20091;-64
2022/04/27 00:25:03;;;;;;;17.20;7.75;;;7.40;99.90;;;;;;5008826;28;20079;-63
2022/04/27 00:27:29;;;;;;;17.40;8.45;;;7.30;99.90;;;;;;4991832;28;20037;-64
2022/04/27 00:29:56;;;;;;;16.15;7.43;;;7.30;99.90;;;;;;5009048;28;20474;-64
2022/04/27 00:32:22;;;;;;;16.38;8.13;;;7.30;99.90;;;;;;4971929;28;20034;-64
2022/04/27 00:34:47;;;;;;;18.38;7.53;;;7.30;99.90;;;;;;4997526;28;20025;-64
2022/04/27 00:37:13;;;;;;;14.93;7.47;;;7.20;99.90;;;;;;4989497;28;20038;-64
2022/04/27 00:39:39;;;;;;;13.98;7.05;;;7.20;99.90;;;;;;5006903;28;20037;-64
2022/04/27 00:42:20;;;;;;;15.30;7.07;;;7.20;99.90;;;;;;5008976;28;20025;-63
2022/04/27 00:44:46;;;;;;;15.00;6.60;;;7.20;99.90;;;;;;5008227;28;20116;-64
2022/04/27 00:47:13;;;;;;;15.43;6.47;;;7.20;99.90;;;;;;5008626;28;20519;-64
2022/04/27 00:49:52;;;;;;;15.43;6.78;;;7.20;99.90;;;;;;5007086;28;20410;-64
2022/04/27 00:52:19;;;;;;;12.50;6.22;;;7.20;99.90;;;;;;5024388;28;20030;-64
2022/04/27 00:54:50;;;;;;;12.50;6.28;;;7.20;99.90;;;;;;5007991;28;20080;-63
2022/04/27 00:57:16;;;;;;;12.25;6.13;;;7.10;99.90;;;;;;5010528;28;20430;-64
2022/04/27 00:59:41;;;;;;;12.40;6.68;;;7.10;99.90;;;;;;5007080;28;20022;-64
2022/04/27 01:02:08;;;;;;;13.95;6.25;;;7.10;99.90;;;;;;5005385;28;20040;-63
2022/04/27 01:04:35;;;;;;;12.48;5.90;;;7.00;99.90;;;;;;4991905;28;20861;-64
2022/04/27 01:07:01;;;;;;;14.82;6.80;;;7.00;99.90;;;;;;5007852;28;20475;-64
2022/04/27 01:09:29;;;;;;;12.98;6.40;;;7.00;99.90;;;;;;5010578;28;20030;-63
2022/04/27 01:11:57;;;;;;;13.57;6.30;;;7.10;99.90;;;;;;5008267;28;20425;-64
2022/04/27 01:14:22;;;;;;;12.00;5.82;;;7.10;99.90;;;;;;4996551;28;20085;-64
2022/04/27 01:16:56;;;;;;;11.82;6.07;;;7.00;99.90;;;;;;4989565;28;20475;-64
2022/04/27 01:19:23;;;;;;;13.20;6.30;;;7.00;99.90;;;;;;4989350;28;20022;-64
2022/04/27 01:21:50;;;;;;;13.02;6.43;;;7.00;99.90;;;;;;5006017;28;20030;-64
2022/04/27 01:24:20;;;;;;;13.45;6.28;;;7.00;99.90;;;;;;5009735;28;20060;-64
2022/04/27 01:26:47;;;;;;;13.50;6.32;;;6.90;99.90;;;;;;5013310;28;20033;-64
2022/04/27 01:29:17;;;;;;;13.13;6.30;;;6.90;99.90;;;;;;4997787;28;20034;-64
2022/04/27 01:31:44;;;;;;;15.05;6.68;;;6.90;99.90;;;;;;4994046;28;20084;-64
2022/04/27 01:34:11;;;;;;;15.10;6.47;;;6.90;99.90;;;;;;5005462;28;20073;-63
2022/04/27 01:36:37;;;;;;;15.80;6.88;;;6.90;99.90;;;;;;5012957;28;20029;-64
2022/04/27 01:39:03;;;;;;;15.40;7.28;;;6.90;99.90;;;;;;5006396;28;20517;-64
2022/04/27 01:41:28;;;;;;;15.43;7.20;;;6.80;99.90;;;;;;5003554;28;20037;-63
2022/04/27 01:43:54;;;;;;;14.73;7.15;;;6.80;99.90;;;;;;5012793;28;20037;-64
2022/04/27 01:46:20;;;;;;;14.57;7.00;;;6.70;99.90;;;;;;5011081;28;20132;-64
2022/04/27 01:48:45;;;;;;;15.88;6.80;;;6.70;99.90;;;;;;4994378;28;20458;-64
2022/04/27 01:51:11;;;;;;;16.27;7.50;;;6.70;99.90;;;;;;4980428;28;20022;-63
2022/04/27 01:56:22;;;;;;;18.23;7.75;;;6.70;99.90;;;;;;5010344;28;20064;-63
2022/04/27 01:58:47;;;;;;;17.85;7.82;;;6.80;99.90;;;;;;5011678;28;20463;-64
2022/04/27 02:01:13;;;;;;;16.52;7.43;;;6.80;99.90;;;;;;5010393;28;20033;-63
2022/04/27 02:03:40;;;;;;;19.27;8.02;;;6.80;99.90;;;;;;5012589;28;20041;-64
2022/04/27 02:06:06;;;;;;;18.67;7.88;;;6.90;99.90;;;;;;5009216;28;20034;-64
2022/04/27 02:08:32;;;;;;;22.55;8.63;;;6.90;99.90;;;;;;5004522;28;20041;-64
2022/04/27 02:10:58;;;;;;;21.73;9.10;;;7.00;99.90;;;;;;4994365;28;20391;-64
2022/04/27 02:13:27;;;;;;;23.50;9.50;;;6.90;99.90;;;;;;5007530;28;20160;-63
2022/04/27 02:15:53;;;;;;;20.75;8.98;;;6.90;99.90;;;;;;4992203;28;20112;-64
2022/04/27 02:18:19;;;;;;;22.30;9.27;;;6.90;99.90;;;;;;4997232;28;20041;-63
2022/04/27 02:20:46;;;;;;;21.90;9.40;;;6.90;99.90;;;;;;5011019;28;20030;-64
2022/04/27 02:23:12;;;;;;;21.38;9.45;;;6.90;99.90;;;;;;5008163;28;20115;-63
2022/04/27 02:25:37;;;;;;;20.60;9.38;;;6.90;99.90;;;;;;4998761;28;20080;-64
2022/04/27 02:28:05;;;;;;;22.60;9.93;;;6.90;99.90;;;;;;4996108;28;20038;-63
2022/04/27 02:30:31;;;;;;;22.05;9.32;;;6.80;99.90;;;;;;5001776;28;20650;-64
2022/04/27 02:32:56;;;;;;;22.30;9.65;;;6.80;99.90;;;;;;4998785;28;20041;-63
2022/04/27 02:35:22;;;;;;;23.92;9.98;;;6.80;99.90;;;;;;4993068;28;20715;-63
2022/04/27 02:37:48;;;;;;;23.63;10.38;;;6.80;99.90;;;;;;5000210;28;20034;-64
2022/04/27 02:40:14;;;;;;;21.15;9.52;;;6.80;99.90;;;;;;5003011;28;20035;-63
2022/04/27 02:42:40;;;;;;;23.55;9.75;;;6.80;99.90;;;;;;4993850;28;20464;-63
2022/04/27 02:45:05;;;;;;;24.60;10.18;;;6.80;99.90;;;;;;4991676;28;20046;-63
2022/04/27 02:47:31;;;;;;;28.08;11.90;;;6.70;99.90;;;;;;4998556;28;20033;-63
2022/04/27 02:52:41;;;;;;;22.92;10.15;;;6.80;99.90;;;;;;5026939;28;20036;-64
2022/04/27 02:55:07;;;;;;;23.40;10.27;;;6.80;99.90;;;;;;5008996;28;20038;-63
2022/04/27 02:57:32;;;;;;;22.55;10.05;;;6.80;99.90;;;;;;5004030;28;20606;-64
2022/04/27 02:59:58;;;;;;;28.90;10.38;;;6.90;99.90;;;;;;5000330;28;20458;-64
2022/04/27 03:02:23;;;;;;;24.63;10.10;;;6.90;99.90;;;;;;4999353;28;20101;-64
2022/04/27 03:04:49;;;;;;;23.35;9.98;;;6.90;99.90;;;;;;4995219;28;20034;-64
2022/04/27 03:07:15;;;;;;;24.75;10.52;;;6.90;99.90;;;;;;4990968;28;20033;-63
2022/04/27 03:09:40;;;;;;;24.25;9.68;;;6.90;99.90;;;;;;5004525;28;20032;-64
2022/04/27 03:12:07;;;;;;;25.58;10.77;;;7.00;99.90;;;;;;5007343;28;20061;-64
2022/04/27 03:14:32;;;;;;;24.98;9.85;;;7.00;99.90;;;;;;5008296;28;20733;-64
2022/04/27 03:16:58;;;;;;;22.52;9.45;;;7.00;99.90;;;;;;5008392;28;20115;-64
2022/04/27 03:19:24;;;;;;;20.17;8.65;;;7.00;99.90;;;;;;5010071;28;20059;-64
2022/04/27 03:21:50;;;;;;;18.92;8.70;;;7.00;99.90;;;;;;5010116;28;20037;-64
2022/04/27 03:24:16;;;;;;;17.73;7.93;;;6.90;99.90;;;;;;5010073;28;20034;-63
2022/04/27 03:26:42;;;;;;;19.95;8.95;;;6.90;99.90;;;;;;5007256;28;20032;-64
2022/04/27 03:29:07;;;;;;;21.40;9.77;;;6.90;99.90;;;;;;5007224;28;20029;-64
2022/04/27 03:31:33;;;;;;;19.90;8.15;;;6.90;99.90;;;;;;5015458;28;20025;-64
2022/04/27 03:34:00;;;;;;;20.02;8.43;;;6.80;99.90;;;;;;5028310;28;20037;-63
2022/04/27 03:36:26;;;;;;;22.70;9.35;;;6.80;99.90;;;;;;4982545;28;20033;-64
2022/04/27 03:38:52;;;;;;;20.13;8.73;;;6.80;99.90;;;;;;4996986;28;20029;-64
2022/04/27 03:41:20;;;;;;;22.50;10.10;;;6.80;99.90;;;;;;4997153;28;20394;-64
2022/04/27 03:43:47;;;;;;;20.60;9.15;;;6.80;99.90;;;;;;5007517;28;20691;-64
2022/04/27 03:46:13;;;;;;;26.05;10.30;;;6.80;99.90;;;;;;5008504;28;20030;-63
2022/04/27 03:48:39;;;;;;;32.33;12.00;;;6.80;99.90;;;;;;5009611;28;20041;-64
2022/04/27 03:51:05;;;;;;;28.52;11.05;;;6.80;99.90;;;;;;5010151;28;20112;-64
2022/04/27 03:53:30;;;;;;;32.10;11.82;;;6.80;99.90;;;;;;5009916;28;20109;-64
2022/04/27 03:55:56;;;;;;;30.85;12.52;;;6.80;99.90;;;;;;5008984;28;20097;-65
2022/04/27 03:58:22;;;;;;;26.25;11.52;;;6.90;99.90;;;;;;5009804;28;20116;-64
2022/04/27 04:00:48;;;;;;;24.08;10.52;;;6.80;99.90;;;;;;5010016;28;20462;-64
2022/04/27 04:03:13;;;;;;;26.00;10.65;;;6.80;99.90;;;;;;5006583;28;20053;-64
2022/04/27 04:05:39;;;;;;;24.15;10.00;;;6.90;99.90;;;;;;5003648;28;20030;-64
2022/04/27 04:08:06;;;;;;;31.63;12.60;;;6.90;99.90;;;;;;5010275;28;20028;-64
2022/04/27 04:10:32;;;;;;;35.78;12.60;;;7.00;99.90;;;;;;5009065;28;20034;-64
2022/04/27 04:12:57;;;;;;;31.35;12.68;;;7.00;99.90;;;;;;5011823;28;20033;-64
2022/04/27 04:15:23;;;;;;;30.83;12.30;;;7.10;99.90;;;;;;5004994;28;20064;-64
2022/04/27 04:17:49;;;;;;;28.40;11.45;;;7.10;99.90;;;;;;5008628;28;20038;-64
2022/04/27 04:20:18;;;;;;;31.33;11.82;;;7.00;99.90;;;;;;5010629;28;20360;-64
2022/04/27 04:22:45;;;;;;;25.85;11.00;;;7.00;99.90;;;;;;5004102;28;20069;-64
2022/04/27 04:30:42;;;;;;;31.45;12.68;;;6.90;99.90;;;;;;5001784;28;20024;-64
2022/04/27 04:33:07;;;;;;;31.65;12.25;;;6.90;99.90;;;;;;5002736;28;20042;-64
2022/04/27 04:35:34;;;;;;;30.40;11.85;;;6.90;99.90;;;;;;4993213;28;20030;-64
2022/04/27 04:38:00;;;;;;;32.75;13.48;;;7.00;99.90;;;;;;5007175;28;20104;-64
2022/04/27 04:40:26;;;;;;;32.97;13.05;;;7.00;99.90;;;;;;4997741;28;20026;-64
2022/04/27 04:42:52;;;;;;;34.25;13.73;;;7.00;99.90;;;;;;4994287;28;20706;-64
2022/04/27 04:45:18;;;;;;;39.47;14.95;;;7.10;99.90;;;;;;4991254;28;20044;-63
2022/04/27 04:47:44;;;;;;;37.25;14.55;;;7.00;99.90;;;;;;5009144;28;20036;-64
2022/04/27 04:50:11;;;;;;;35.90;14.48;;;7.10;99.90;;;;;;4989807;28;20038;-64
2022/04/27 04:52:37;;;;;;;38.88;14.88;;;7.10;99.90;;;;;;5007843;28;20034;-64
2022/04/27 04:55:04;;;;;;;34.60;14.35;;;7.10;99.90;;;;;;5009865;28;20030;-64
2022/04/27 04:57:30;;;;;;;39.88;14.88;;;7.20;99.90;;;;;;5010217;28;20034;-63
2022/04/27 04:59:56;;;;;;;38.28;15.35;;;7.20;99.90;;;;;;5013115;28;20084;-64
2022/04/27 05:02:22;;;;;;;35.97;14.45;;;7.20;99.90;;;;;;5012997;28;20034;-63
2022/04/27 05:04:47;;;;;;;37.53;15.63;;;7.30;99.90;;;;;;4996024;28;20391;-64
2022/04/27 05:07:13;;;;;;;40.45;16.02;;;7.30;99.90;;;;;;5013592;28;20068;-64
2022/04/27 05:09:39;;;;;;;39.92;15.40;;;7.30;99.90;;;;;;5012695;28;20030;-64
2022/04/27 05:12:05;;;;;;;37.08;14.95;;;7.40;99.90;;;;;;5012315;28;20036;-64
2022/04/27 05:14:31;;;;;;;39.00;15.15;;;7.40;99.90;;;;;;5012017;28;20061;-64
2022/04/27 05:16:57;;;;;;;38.20;14.82;;;7.40;99.90;;;;;;5013403;28;20116;-65
2022/04/27 05:19:23;;;;;;;38.00;14.48;;;7.50;99.90;;;;;;4994987;28;20100;-63
2022/04/27 05:21:49;;;;;;;42.67;15.63;;;7.40;99.90;;;;;;5013273;28;20034;-64
2022/04/27 05:24:15;;;;;;;40.22;15.50;;;7.40;99.90;;;;;;5012897;28;20045;-64
2022/04/27 05:26:40;;;;;;;36.30;14.30;;;7.50;99.90;;;;;;5004631;28;20113;-64
2022/04/27 05:32:00;;;;;;;40.83;16.23;;;7.50;99.90;;;;;;5032887;28;20080;-64
2022/04/27 05:34:26;;;;;;;41.53;15.45;;;7.60;99.90;;;;;;5032108;28;20025;-64
2022/04/27 05:36:52;;;;;;;42.13;15.68;;;7.50;99.90;;;;;;5021613;28;20125;-64
2022/04/27 05:39:21;;;;;;;39.88;15.27;;;7.50;99.90;;;;;;5012814;28;20100;-64
2022/04/27 05:41:49;;;;;;;37.60;15.00;;;7.50;99.90;;;;;;5011057;28;20513;-64
2022/04/27 05:44:16;;;;;;;39.03;15.38;;;7.50;99.90;;;;;;5012611;28;20049;-64
2022/04/27 05:46:42;;;;;;;37.22;16.10;;;7.50;99.90;;;;;;4994289;28;20045;-64
2022/04/27 05:49:08;;;;;;;40.35;15.88;;;7.60;99.90;;;;;;5011851;28;20077;-64
2022/04/27 05:51:34;;;;;;;40.85;15.80;;;7.60;99.90;;;;;;4994266;28;20710;-64
2022/04/27 05:54:00;;;;;;;37.95;15.15;;;7.70;99.90;;;;;;5012725;28;20026;-64
2022/04/27 05:56:26;;;;;;;39.25;15.93;;;7.60;99.90;;;;;;5011497;28;20037;-63
2022/04/27 05:58:52;;;;;;;39.92;15.85;;;7.60;99.90;;;;;;5012349;28;20537;-64
2022/04/27 06:01:18;;;;;;;36.03;15.20;;;7.70;99.90;;;;;;5012516;28;20036;-64
2022/04/27 06:03:44;;;;;;;35.42;14.80;;;7.60;99.90;;;;;;5009777;28;20648;-64
2022/04/27 06:06:10;;;;;;;39.75;16.10;;;7.70;99.90;;;;;;5011931;28;20034;-64
2022/04/27 06:08:35;;;;;;;36.17;14.38;;;7.70;99.90;;;;;;5011190;28;20030;-64
2022/04/27 06:11:01;;;;;;;37.85;15.13;;;7.80;99.90;;;;;;4994800;28;20029;-65
2022/04/27 06:13:27;;;;;;;37.05;15.45;;;7.80;99.90;;;;;;5011575;28;20157;-63
2022/04/27 06:15:53;;;;;;;35.63;14.63;;;7.90;99.90;;;;;;5012208;28;20388;-64
2022/04/27 06:18:18;;;;;;;36.95;15.25;;;7.90;99.90;;;;;;5011266;28;20041;-64
2022/04/27 06:20:45;;;;;;;37.00;13.88;;;7.90;99.90;;;;;;5011090;28;20451;-64
2022/04/27 06:23:11;;;;;;;34.38;13.68;;;8.00;99.90;;;;;;5012020;28;20376;-64
2022/04/27 06:25:39;;;;;;;36.20;14.10;;;8.00;99.90;;;;;;5011538;28;20037;-64
2022/04/27 06:28:05;;;;;;;35.22;14.27;;;8.00;99.90;;;;;;5012090;28;20030;-64
2022/04/27 06:30:32;;;;;;;38.38;14.35;;;8.00;99.90;;;;;;5010774;28;20099;-64
2022/04/27 06:32:58;;;;;;;34.00;13.80;;;8.10;99.90;;;;;;5010287;28;21495;-64
2022/04/27 06:35:24;;;;;;;27.60;11.05;;;8.10;99.90;;;;;;5012013;28;20195;-63
2022/04/27 06:37:49;;;;;;;28.15;11.85;;;8.20;99.90;;;;;;5011645;28;20026;-64
2022/04/27 06:40:15;;;;;;;25.92;11.20;;;8.20;99.90;;;;;;5011904;28;20112;-64
2022/04/27 06:42:44;;;;;;;14.52;6.57;;;8.40;99.90;;;;;;5010709;28;20034;-64
2022/04/27 06:45:10;;;;;;;11.82;6.05;;;8.50;99.90;;;;;;5011653;28;20121;-65
2022/04/27 06:47:36;;;;;;;13.50;6.00;;;8.60;99.90;;;;;;5009820;28;20207;-65
2022/04/27 06:50:02;;;;;;;11.23;5.00;;;8.70;99.90;;;;;;4997626;28;20060;-64
2022/04/27 06:52:28;;;;;;;10.23;4.82;;;8.80;99.90;;;;;;5028393;28;20037;-63
2022/04/27 06:54:53;;;;;;;12.43;5.45;;;8.90;99.90;;;;;;5017710;28;20029;-65
2022/04/27 06:57:19;;;;;;;12.45;5.30;;;8.90;99.90;;;;;;5011280;28;20038;-65
2022/04/27 06:59:45;;;;;;;10.10;5.05;;;9.00;99.90;;;;;;5010174;28;20033;-65
2022/04/27 07:02:13;;;;;;;10.88;5.38;;;9.10;99.90;;;;;;5011449;28;20029;-64
2022/04/27 07:04:48;;;;;;;10.55;5.32;;;9.10;99.90;;;;;;5010568;28;20511;-65
2022/04/27 07:07:14;;;;;;;12.57;5.15;;;9.20;99.90;;;;;;5010059;28;20560;-64
2022/04/27 07:09:40;;;;;;;10.95;5.03;;;9.30;99.90;;;;;;5010585;28;20084;-65
2022/04/27 07:12:06;;;;;;;10.73;5.53;;;9.30;99.90;;;;;;4993744;28;20026;-65
2022/04/27 07:14:31;;;;;;;13.40;6.00;;;9.30;99.90;;;;;;5010157;28;20108;-65
2022/04/27 07:16:57;;;;;;;11.73;5.72;;;9.40;99.90;;;;;;5010812;28;20487;-64
2022/04/27 07:19:23;;;;;;;10.73;5.40;;;9.40;99.90;;;;;;5010103;28;20026;-64
2022/04/27 07:21:49;;;;;;;12.23;6.07;;;9.40;99.90;;;;;;5026136;28;20103;-64
2022/04/27 07:24:15;;;;;;;14.25;6.20;;;9.40;99.90;;;;;;5027925;28;20083;-64
2022/04/27 07:26:41;;;;;;;14.52;5.95;;;9.40;99.90;;;;;;5010359;28;20037;-65
2022/04/27 07:29:08;;;;;;;11.55;5.45;;;9.30;99.90;;;;;;5011261;28;20030;-64
2022/04/27 07:31:34;;;;;;;11.48;5.30;;;9.40;99.90;;;;;;5009711;28;20080;-64
2022/04/27 07:33:59;;;;;;;11.73;5.53;;;9.50;99.90;;;;;;5010547;28;20038;-64
2022/04/27 07:36:25;;;;;;;13.07;6.22;;;9.50;99.90;;;;;;5010107;28;20467;-64
2022/04/27 07:38:51;;;;;;;11.43;5.57;;;9.60;99.90;;;;;;5008790;28;20029;-64
2022/04/27 07:41:16;;;;;;;12.52;5.97;;;9.60;99.90;;;;;;5021205;28;20355;-64
2022/04/27 07:43:42;;;;;;;11.80;5.70;;;9.70;99.90;;;;;;5023989;28;20072;-64
2022/04/27 07:46:09;;;;;;;12.68;5.57;;;9.70;99.90;;;;;;5013748;28;20030;-65
2022/04/27 07:48:35;;;;;;;13.10;5.82;;;9.70;99.90;;;;;;5009808;28;20026;-63
2022/04/27 07:51:03;;;;;;;11.55;5.80;;;9.70;99.90;;;;;;5010616;28;20113;-64
2022/04/27 07:53:29;;;;;;;10.85;5.40;;;9.70;99.90;;;;;;5010218;28;20044;-63
2022/04/27 07:55:55;;;;;;;10.25;5.15;;;9.60;99.90;;;;;;5009774;28;20466;-65
2022/04/27 07:58:21;;;;;;;10.52;5.45;;;9.70;99.90;;;;;;5014087;28;20351;-64
2022/04/27 08:00:47;;;;;;;13.02;5.95;;;9.70;99.90;;;;;;5029223;28;20025;-64
2022/04/27 08:03:13;;;;;;;11.55;5.53;;;9.70;99.90;;;;;;5030024;28;20064;-65
2022/04/27 08:05:39;;;;;;;10.10;5.10;;;9.60;99.90;;;;;;5029141;28;20036;-65
2022/04/27 08:08:07;;;;;;;10.75;5.57;;;9.70;99.90;;;;;;4994044;28;20033;-64
2022/04/27 08:10:33;;;;;;;10.63;5.22;;;9.60;99.90;;;;;;5009447;28;20374;-63
2022/04/27 08:12:58;;;;;;;11.95;5.38;;;9.60;99.90;;;;;;5009047;28;20033;-64
2022/04/27 08:15:25;;;;;;;10.75;5.13;;;9.50;99.90;;;;;;5009606;28;20507;-64
2022/04/27 08:18:07;;;;;;;8.88;4.55;;;9.50;99.90;;;;;;5009271;28;20032;-64
2022/04/27 08:23:22;;;;;;;10.88;5.22;;;9.60;99.90;;;;;;5009884;28;20041;-65
2022/04/27 08:25:49;;;;;;;11.05;4.97;;;9.60;99.90;;;;;;5009117;28;20022;-64
2022/04/27 08:28:16;;;;;;;10.43;4.88;;;9.70;99.90;;;;;;5016582;28;20406;-64
2022/04/27 08:30:44;;;;;;;9.88;4.95;;;9.60;99.90;;;;;;5027624;28;20036;-65
2022/04/27 08:33:11;;;;;;;8.75;4.63;;;9.70;99.90;;;;;;5000464;28;20033;-64
2022/04/27 08:35:37;;;;;;;10.63;4.75;;;9.70;99.90;;;;;;5009027;28;20493;-64
2022/04/27 08:38:04;;;;;;;9.93;5.10;;;9.70;99.90;;;;;;5009889;28;20054;-64
2022/04/27 08:40:30;;;;;;;10.98;5.00;;;9.80;99.90;;;;;;5009652;28;20036;-64
2022/04/27 08:43:01;;;;;;;8.48;4.45;;;9.80;99.90;;;;;;5014199;28;20034;-64
2022/04/27 08:45:28;;;;;;;16.95;6.88;;;9.90;99.90;;;;;;5008976;28;20087;-64
2022/04/27 08:47:55;;;;;;;9.98;5.05;;;9.90;99.90;;;;;;5008352;28;20022;-64
2022/04/27 08:50:23;;;;;;;11.25;5.78;;;10.00;99.90;;;;;;5009512;28;20100;-64
2022/04/27 08:52:49;;;;;;;10.88;4.80;;;10.00;99.90;;;;;;5008861;28;20220;-64
2022/04/27 08:55:15;;;;;;;11.02;5.45;;;10.20;99.90;;;;;;5009585;28;20041;-65
2022/04/27 08:57:43;;;;;;;11.95;5.65;;;10.20;99.90;;;;;;5007279;28;20038;-64
2022/04/27 09:00:17;;;;;;;9.95;5.57;;;10.30;99.90;;;;;;5009580;28;20461;-65
2022/04/27 09:02:43;;;;;;;11.38;5.88;;;10.50;99.90;;;;;;5005169;28;20502;-65
2022/04/27 09:05:20;;;;;;;11.95;5.22;;;10.50;99.90;;;;;;5001474;28;20034;-64
2022/04/27 09:07:57;;;;;;;18.30;8.10;;;10.50;99.90;;;;;;4991022;28;20031;-65
2022/04/27 09:10:24;;;;;;;17.95;8.45;;;10.50;99.90;;;;;;4994094;28;20095;-63
2022/04/27 09:12:52;;;;;;;15.80;7.60;;;10.40;99.90;;;;;;5003957;28;20034;-65
2022/04/27 09:15:20;;;;;;;15.13;6.90;;;10.50;99.90;;;;;;4997494;28;20408;-64
2022/04/27 09:20:55;;;;;;;8.80;4.75;;;10.50;99.90;;;;;;5003704;28;20037;-63
2022/04/27 09:23:40;;;;;;;11.63;5.43;;;10.60;99.90;;;;;;4996879;28;20045;-65
2022/04/27 09:26:22;;;;;;;10.93;5.57;;;10.60;99.90;;;;;;5006548;28;20053;-65
2022/04/27 09:28:50;;;;;;;12.57;6.10;;;10.50;99.90;;;;;;4988948;28;20041;-64
2022/04/27 09:31:29;;;;;;;16.08;5.82;;;10.60;99.90;;;;;;4996033;28;20113;-64
2022/04/27 09:34:03;;;;;;;11.73;5.68;;;10.70;99.90;;;;;;5008452;28;20033;-64
2022/04/27 09:36:29;;;;;;;11.90;6.32;;;10.60;99.90;;;;;;5007808;28;20030;-64
2022/04/27 09:38:57;;;;;;;13.50;6.63;;;10.50;99.90;;;;;;4994959;28;20034;-63
2022/04/27 09:41:45;;;;;;;22.33;9.63;;;10.50;99.90;;;;;;5006902;28;20125;-64
2022/04/27 09:44:30;;;;;;;18.13;9.27;;;10.50;99.90;;;;;;5012727;28;20050;-64
2022/04/27 09:46:58;;;;;;;16.10;6.95;;;10.50;99.90;;;;;;5020453;28;20657;-64
2022/04/27 09:49:25;;;;;;;14.57;7.22;;;10.40;99.90;;;;;;5021377;28;20088;-64
2022/04/27 09:51:55;;;;;;;14.23;7.30;;;10.40;99.90;;;;;;5011936;28;20088;-63
2022/04/27 09:54:20;;;;;;;14.60;9.13;;;10.40;99.90;;;;;;4995054;28;20034;-64
2022/04/27 09:56:51;;;;;;;39.95;25.98;;;10.40;99.90;;;;;;5011850;28;20099;-63
2022/04/27 09:59:20;;;;;;;26.55;16.58;;;10.50;99.90;;;;;;5012534;28;20092;-64
2022/04/27 10:01:47;;;;;;;16.90;8.82;;;10.70;99.90;;;;;;5011654;28;20052;-63
2022/04/27 10:04:16;;;;;;;14.10;6.80;;;10.70;99.90;;;;;;5011108;28;20046;-64
2022/04/27 10:06:42;;;;;;;14.82;7.50;;;10.80;99.90;;;;;;5018079;28;20036;-63
2022/04/27 10:09:09;;;;;;;14.35;7.18;;;11.00;99.90;;;;;;5032169;28;20463;-64
2022/04/27 10:11:37;;;;;;;30.95;18.90;;;11.10;99.90;;;;;;5032227;28;20091;-64
2022/04/27 10:14:03;;;;;;;20.63;11.50;;;11.20;99.90;;;;;;5031075;28;20056;-64
2022/04/27 10:16:30;;;;;;;16.50;9.27;;;11.40;99.90;;;;;;5032148;28;20034;-64
2022/04/27 10:18:56;;;;;;;13.65;7.47;;;11.50;99.90;;;;;;5028609;28;20355;-64
2022/04/27 10:21:56;;;;;;;13.90;7.90;;;11.50;99.90;;;;;;5012749;28;20032;-64
2022/04/27 10:24:34;;;;;;;16.35;7.82;;;11.50;99.90;;;;;;5012086;28;20034;-64
2022/04/27 10:27:18;;;;;;;18.90;9.73;;;11.50;99.90;;;;;;5011265;28;20026;-64
2022/04/27 10:29:51;;;;;;;14.60;7.50;;;11.60;99.90;;;;;;5011144;28;20029;-64
2022/04/27 10:32:43;;;;;;;15.15;7.80;;;11.40;99.90;;;;;;4997055;28;20025;-64
2022/04/27 10:35:12;;;;;;;15.70;7.97;;;11.60;99.90;;;;;;4997883;28;20042;-63
2022/04/27 10:37:59;;;;;;;19.90;7.72;;;12.10;99.90;;;;;;4993428;28;20038;-63
2022/04/27 10:40:26;;;;;;;12.52;7.05;;;12.70;99.90;;;;;;5008189;28;20034;-63
2022/04/27 10:42:52;;;;;;;15.15;8.27;;;13.10;99.90;;;;;;5008207;28;20042;-63
2022/04/27 10:45:24;;;;;;;13.20;7.80;;;13.40;99.90;;;;;;5011655;28;20041;-63
2022/04/27 10:47:50;;;;;;;16.13;9.45;;;13.60;99.90;;;;;;5010903;28;20436;-63
2022/04/27 10:50:18;;;;;;;16.15;9.48;;;14.00;99.90;;;;;;5010498;28;20025;-63
2022/04/27 10:52:51;;;;;;;16.55;8.82;;;14.00;99.90;;;;;;5000750;28;20128;-63
2022/04/27 10:55:35;;;;;;;16.63;9.00;;;14.10;99.90;;;;;;5010501;28;20037;-63
2022/04/27 10:58:22;;;;;;;20.77;11.23;;;14.20;99.90;;;;;;5010594;28;20014;-63
2022/04/27 11:01:02;;;;;;;20.08;11.98;;;14.00;99.90;;;;;;4991004;28;20100;-62
2022/04/27 11:03:30;;;;;;;23.02;12.60;;;13.90;99.90;;;;;;4991745;28;20035;-63
2022/04/27 11:06:00;;;;;;;16.67;9.90;;;13.70;99.90;;;;;;5002772;28;20386;-63
2022/04/27 11:08:53;;;;;;;19.38;10.48;;;13.50;99.90;;;;;;5009555;28;20030;-63
2022/04/27 11:11:21;;;;;;;16.63;9.55;;;13.60;99.90;;;;;;4989244;28;20042;-64
2022/04/27 11:13:47;;;;;;;16.08;9.68;;;14.00;99.90;;;;;;4993960;28;20026;-63
2022/04/27 11:16:13;;;;;;;18.00;9.43;;;14.60;99.90;;;;;;4989589;28;20035;-63
2022/04/27 11:18:52;;;;;;;15.63;8.73;;;14.60;99.90;;;;;;4982570;28;20514;-63
2022/04/27 11:21:23;;;;;;;13.07;7.88;;;14.40;99.90;;;;;;4977050;28;20050;-63
2022/04/27 11:23:48;;;;;;;14.90;8.48;;;14.40;99.90;;;;;;4986615;28;20038;-63
2022/04/27 11:26:14;;;;;;;16.48;9.75;;;14.60;99.90;;;;;;4980995;28;20085;-63
2022/04/27 11:28:45;;;;;;;14.25;8.23;;;14.60;99.90;;;;;;5002926;28;20026;-63
2022/04/27 11:31:11;;;;;;;17.80;9.05;;;14.60;99.90;;;;;;5010629;28;20018;-63
2022/04/27 11:33:40;;;;;;;14.93;8.85;;;15.20;99.90;;;;;;4996664;28;20479;-62
2022/04/27 11:36:27;;;;;;;14.20;8.85;;;15.60;99.90;;;;;;4980705;28;20042;-63
2022/04/27 11:38:54;;;;;;;15.02;8.85;;;15.80;99.90;;;;;;4985323;28;20042;-63
2022/04/27 11:41:23;;;;;;;14.68;8.18;;;15.90;99.90;;;;;;4985165;28;20109;-63
2022/04/27 11:43:50;;;;;;;14.07;7.97;;;16.50;99.90;;;;;;4978110;28;20104;-63
2022/04/27 11:46:16;;;;;;;14.43;8.35;;;16.40;99.90;;;;;;4990460;28;20551;-63
2022/04/27 11:48:49;;;;;;;15.23;8.52;;;16.10;99.90;;;;;;4990704;28;20138;-63
2022/04/27 11:51:15;;;;;;;13.32;7.82;;;15.40;99.90;;;;;;4990646;28;20052;-63
2022/04/27 11:53:43;;;;;;;17.58;9.02;;;14.70;99.90;;;;;;4990849;28;20539;-63
2022/04/27 11:56:09;;;;;;;14.90;8.88;;;14.40;99.90;;;;;;4989748;28;20027;-62
2022/04/27 11:58:35;;;;;;;14.65;8.30;;;14.20;99.90;;;;;;4989614;28;20031;-63
2022/04/27 12:01:01;;;;;;;14.57;8.45;;;14.10;99.90;;;;;;4998285;28;20379;-63
2022/04/27 12:03:32;;;;;;;15.68;9.15;;;14.00;99.90;;;;;;5010182;28;20114;-63
2022/04/27 12:05:57;;;;;;;15.60;9.00;;;14.00;99.90;;;;;;5009178;28;20030;-62
2022/04/27 12:08:27;;;;;;;17.10;10.00;;;13.70;99.90;;;;;;5010566;28;20052;-63
2022/04/27 12:10:53;;;;;;;21.33;10.55;;;13.70;99.90;;;;;;5008105;28;20062;-62
2022/04/27 12:13:20;;;;;;;19.13;9.80;;;13.90;99.90;;;;;;5010160;28;20092;-62
2022/04/27 12:15:54;;;;;;;15.60;9.18;;;14.60;99.90;;;;;;5022010;28;20052;-63
2022/04/27 12:18:25;;;;;;;16.90;8.75;;;15.40;99.90;;;;;;5028930;28;20025;-62
2022/04/27 12:20:52;;;;;;;16.52;9.05;;;15.60;99.90;;;;;;5028117;28;20038;-62
2022/04/27 12:23:29;;;;;;;14.90;8.57;;;15.90;99.90;;;;;;5011076;28;20099;-63
2022/04/27 12:25:56;;;;;;;15.35;8.93;;;16.60;99.90;;;;;;4993348;28;20072;-63
2022/04/27 12:28:33;;;;;;;17.77;10.05;;;16.40;99.90;;;;;;4991510;28;20104;-62
2022/04/27 12:31:09;;;;;;;18.52;10.07;;;15.70;99.90;;;;;;5008298;28;20041;-62
2022/04/27 12:33:42;;;;;;;17.25;10.10;;;15.20;99.90;;;;;;5008531;28;20507;-62
2022/04/27 12:39:10;;;;;;;16.00;9.30;;;14.80;99.90;;;;;;5007244;28;20036;-62
2022/04/27 12:41:47;;;;;;;15.95;9.10;;;14.60;99.90;;;;;;5028807;28;20108;-62
2022/04/27 12:44:18;;;;;;;14.57;8.48;;;14.80;99.90;;;;;;5015898;28;20053;-62
2022/04/27 12:47:02;;;;;;;11.95;6.97;;;15.10;99.90;;;;;;5008894;28;20580;-62
2022/04/27 12:49:29;;;;;;;12.20;7.20;;;14.90;99.90;;;;;;5008802;28;20084;-62
2022/04/27 12:51:57;;;;;;;11.60;6.90;;;14.70;99.90;;;;;;5007785;28;20386;-62
2022/04/27 12:54:36;;;;;;;13.77;7.78;;;14.60;99.90;;;;;;5014380;28;20459;-62
2022/04/27 12:57:02;;;;;;;13.40;7.90;;;14.40;99.90;;;;;;5027504;28;20079;-62
2022/04/27 12:59:28;;;;;;;12.40;7.45;;;14.40;99.90;;;;;;5023148;28;20105;-62
2022/04/27 13:01:58;;;;;;;13.95;8.18;;;14.40;99.90;;;;;;5007975;28;20130;-62
2022/04/27 13:04:23;;;;;;;11.95;7.57;;;14.50;99.90;;;;;;5007964;28;20065;-62
2022/04/27 13:06:51;;;;;;;13.70;7.90;;;14.50;99.90;;;;;;5007901;28;20096;-62